Time;durP1;ratioP1;P1;durP2;ratioP2;P2;SDS_P1;SDS_P2;PMS_P1;PMS_P2;Temp;Humidity;BMP_temperature;BMP_pressure;BME280_temperature;BME280_humidity;BME280_pressure;Samples;Min_cycle;Max_cycle;Signal;HPM_P1;HPM_P2
2021/10/22 04:13:22;;;;;;;28.77;17.48;;;11.00;99.90;;;;;;5112818;27;20867;-89
2021/10/22 04:15:48;;;;;;;25.42;16.55;;;10.90;99.90;;;;;;5111415;28;20021;-89
2021/10/22 04:18:15;;;;;;;25.67;17.00;;;10.90;99.90;;;;;;5111011;28;20062;-90
2021/10/22 04:20:41;;;;;;;23.80;16.70;;;11.00;99.90;;;;;;5110947;28;20024;-90
2021/10/22 04:23:08;;;;;;;23.50;15.65;;;11.00;99.90;;;;;;5096373;28;20031;-92
2021/10/22 04:25:42;;;;;;;25.25;16.13;;;11.00;99.90;;;;;;5100140;28;20028;-90
2021/10/22 04:28:09;;;;;;;24.13;15.30;;;11.10;99.90;;;;;;5111107;28;20028;-89
2021/10/22 04:30:36;;;;;;;22.95;15.77;;;11.10;99.90;;;;;;5111006;28;20051;-91
2021/10/22 04:33:02;;;;;;;22.83;15.55;;;11.10;99.90;;;;;;5111876;28;20128;-92
2021/10/22 04:35:30;;;;;;;27.00;16.35;;;11.20;99.90;;;;;;5111248;28;20394;-91
2021/10/22 04:40:33;;;;;;;24.75;15.63;;;11.20;99.90;;;;;;5112407;28;20027;-92
2021/10/22 04:43:19;;;;;;;23.95;16.13;;;11.30;99.90;;;;;;5110745;28;20022;-91
2021/10/22 04:45:48;;;;;;;23.50;16.65;;;11.30;99.90;;;;;;5110404;28;20115;-90
2021/10/22 04:48:14;;;;;;;22.27;14.73;;;11.30;99.90;;;;;;5110655;28;20481;-92
2021/10/22 04:50:52;;;;;;;21.75;15.38;;;11.30;99.90;;;;;;5110264;28;20043;-93
2021/10/22 04:53:26;;;;;;;26.10;16.33;;;11.40;99.90;;;;;;5110369;28;20466;-93
2021/10/22 04:55:52;;;;;;;26.08;15.88;;;11.40;99.90;;;;;;5103045;28;20484;-92
2021/10/22 04:58:18;;;;;;;23.02;16.33;;;11.40;99.90;;;;;;5110219;28;20107;-92
2021/10/22 05:00:44;;;;;;;29.08;15.80;;;11.40;99.90;;;;;;5104456;28;20141;-91
2021/10/22 05:03:10;;;;;;;24.60;16.73;;;11.40;99.90;;;;;;5110129;28;20034;-92
2021/10/22 05:05:36;;;;;;;20.48;14.60;;;11.50;99.90;;;;;;5110100;28;20024;-92
2021/10/22 05:08:03;;;;;;;20.80;15.82;;;11.50;99.90;;;;;;5109883;28;20532;-91
2021/10/22 05:10:28;;;;;;;27.48;15.13;;;11.50;99.90;;;;;;5110294;28;20360;-92
2021/10/22 05:12:56;;;;;;;23.20;16.15;;;11.50;99.90;;;;;;5109390;28;20050;-92
2021/10/22 05:15:24;;;;;;;28.98;16.42;;;11.50;99.90;;;;;;5109787;28;20019;-92
2021/10/22 05:17:49;;;;;;;22.73;14.70;;;11.50;99.90;;;;;;5109587;28;20023;-93
2021/10/22 05:20:15;;;;;;;23.98;17.55;;;11.50;99.90;;;;;;5109702;28;20024;-92
2021/10/22 05:22:41;;;;;;;26.40;16.52;;;11.60;99.90;;;;;;5107945;28;20454;-92
2021/10/22 05:25:10;;;;;;;34.90;23.15;;;11.60;99.90;;;;;;5096197;28;20153;-93
2021/10/22 05:27:36;;;;;;;22.08;15.23;;;11.70;99.90;;;;;;5096328;28;20115;-91
2021/10/22 05:30:03;;;;;;;21.73;15.27;;;11.70;99.90;;;;;;5096304;28;20076;-90
2021/10/22 05:32:29;;;;;;;20.45;15.05;;;11.80;99.90;;;;;;5095951;28;20530;-91
2021/10/22 05:34:54;;;;;;;21.00;14.38;;;11.80;99.90;;;;;;5096413;28;20099;-90
2021/10/22 05:37:20;;;;;;;28.20;16.05;;;11.90;99.90;;;;;;5096156;28;20387;-90
2021/10/22 05:39:46;;;;;;;27.60;17.55;;;12.00;99.90;;;;;;5096110;28;20103;-90
2021/10/22 05:42:12;;;;;;;25.10;16.48;;;12.00;99.90;;;;;;5095936;28;20485;-90
2021/10/22 05:44:38;;;;;;;31.77;16.90;;;12.00;99.90;;;;;;5095937;28;20028;-89
2021/10/22 05:47:03;;;;;;;27.27;16.48;;;12.10;99.90;;;;;;5096050;28;20044;-90
2021/10/22 05:49:29;;;;;;;24.30;15.73;;;12.10;99.90;;;;;;5095824;28;20020;-89
2021/10/22 05:51:55;;;;;;;25.00;15.65;;;12.20;99.90;;;;;;5095662;28;20143;-88
2021/10/22 05:54:21;;;;;;;20.17;15.20;;;12.20;99.90;;;;;;5095718;28;20027;-89
2021/10/22 05:56:47;;;;;;;22.60;15.13;;;12.30;99.90;;;;;;5095539;28;20048;-89
2021/10/22 05:59:12;;;;;;;24.65;15.50;;;12.30;99.90;;;;;;5095729;28;20364;-90
2021/10/22 06:01:39;;;;;;;23.48;15.35;;;12.30;99.90;;;;;;5095671;28;20110;-89
2021/10/22 06:04:04;;;;;;;24.85;15.98;;;12.40;99.90;;;;;;5095637;28;20570;-89
2021/10/22 06:06:30;;;;;;;23.52;15.82;;;12.40;99.90;;;;;;5095685;28;20051;-89
2021/10/22 06:08:58;;;;;;;22.73;15.70;;;12.50;99.90;;;;;;5095629;28;20029;-91
2021/10/22 06:11:24;;;;;;;28.63;18.20;;;12.50;99.90;;;;;;5095271;28;20044;-90
2021/10/22 06:13:50;;;;;;;23.50;16.25;;;12.50;99.90;;;;;;5095178;28;20482;-89
2021/10/22 06:16:17;;;;;;;25.35;17.33;;;12.50;99.90;;;;;;5095146;28;20020;-89
2021/10/22 06:18:46;;;;;;;28.50;16.67;;;12.50;99.90;;;;;;5096295;28;20103;-88
2021/10/22 06:21:33;;;;;;;28.95;19.58;;;12.50;99.90;;;;;;5096094;28;20012;-88
2021/10/22 06:24:01;;;;;;;42.55;29.42;;;12.40;99.90;;;;;;5094979;28;20080;-88
2021/10/22 06:26:31;;;;;;;25.52;17.42;;;12.30;99.90;;;;;;5094822;28;20470;-90
2021/10/22 06:28:57;;;;;;;;;;;12.30;99.90;;;;;;5095272;28;20028;-89
2021/10/22 06:31:23;;;;;;;33.63;20.63;;;12.30;99.90;;;;;;5094915;28;19961;-90
2021/10/22 06:33:49;;;;;;;24.60;16.70;;;12.40;99.90;;;;;;5094869;28;20115;-90
2021/10/22 06:36:15;;;;;;;28.88;16.98;;;12.40;99.90;;;;;;5093956;28;20077;-89
2021/10/22 06:38:41;;;;;;;31.55;21.00;;;12.50;99.90;;;;;;5095611;28;20724;-90
2021/10/22 06:41:09;;;;;;;28.10;18.83;;;12.60;99.90;;;;;;5094623;28;20112;-90
2021/10/22 06:43:40;;;;;;;22.70;15.77;;;12.70;99.90;;;;;;5094575;28;20077;-90
2021/10/22 06:46:07;;;;;;;28.80;17.45;;;12.70;99.90;;;;;;5094755;28;20020;-89
2021/10/22 06:48:34;;;;;;;25.65;16.13;;;12.80;99.90;;;;;;5094691;28;20067;-87
2021/10/22 06:51:01;;;;;;;20.95;15.52;;;12.90;99.90;;;;;;5094552;28;20016;-87
2021/10/22 06:53:27;;;;;;;22.17;14.13;;;13.10;99.90;;;;;;5094491;28;20102;-87
2021/10/22 06:55:53;;;;;;;21.50;14.05;;;13.20;99.90;;;;;;5096412;28;20023;-95
2021/10/22 06:58:19;;;;;;;30.98;21.00;;;13.40;99.90;;;;;;5094764;28;20115;-94
2021/10/22 07:00:48;;;;;;;26.60;16.27;;;13.40;99.90;;;;;;5095115;28;20016;-93
2021/10/22 07:03:19;;;;;;;26.30;18.35;;;13.40;99.90;;;;;;5094830;28;20024;-93
2021/10/22 07:08:14;;;;;;;20.35;12.98;;;13.50;99.90;;;;;;5095715;28;20391;-96
2021/10/22 07:10:40;;;;;;;19.33;14.50;;;13.60;99.90;;;;;;5094343;28;20532;-96
2021/10/22 07:13:06;;;;;;;24.20;13.75;;;13.60;99.90;;;;;;5094161;28;20506;-95
2021/10/22 07:15:32;;;;;;;20.73;14.20;;;13.60;99.90;;;;;;5094267;28;20016;-95
2021/10/22 07:18:01;;;;;;;26.45;15.32;;;13.60;99.90;;;;;;5094234;28;20110;-94
2021/10/22 07:20:28;;;;;;;23.25;16.27;;;13.70;99.90;;;;;;5094160;28;20028;-95
2021/10/22 07:23:03;;;;;;;29.27;19.70;;;13.70;99.90;;;;;;5094228;28;20065;-95
2021/10/22 07:25:29;;;;;;;26.08;19.27;;;13.80;99.90;;;;;;5094592;28;20073;-95
2021/10/22 07:27:56;;;;;;;27.40;18.08;;;13.90;99.90;;;;;;5095538;28;20024;-96
2021/10/22 07:30:22;;;;;;;28.17;19.02;;;14.10;99.90;;;;;;5095323;28;20074;-92
2021/10/22 07:32:48;;;;;;;24.27;15.60;;;14.30;99.50;;;;;;5095805;28;20478;-95
2021/10/22 07:35:15;;;;;;;23.25;14.63;;;14.40;99.90;;;;;;5093961;28;20028;-95
2021/10/22 07:37:41;;;;;;;24.20;15.77;;;14.50;99.20;;;;;;5093793;28;20021;-95
2021/10/22 07:40:11;;;;;;;34.25;19.05;;;14.50;98.50;;;;;;5093899;28;20028;-96
2021/10/22 07:42:37;;;;;;;21.65;13.68;;;14.60;99.10;;;;;;5094140;28;20020;-92
2021/10/22 07:45:05;;;;;;;25.15;13.32;;;14.70;98.20;;;;;;5093772;28;20478;-94
2021/10/22 07:47:36;;;;;;;16.05;11.75;;;14.70;98.40;;;;;;5093714;28;20107;-96
2021/10/22 07:50:03;;;;;;;;;;;14.80;98.70;;;;;;5094082;28;20028;-96
2021/10/22 07:52:29;;;;;;;20.45;13.10;;;14.80;97.90;;;;;;5093710;28;19908;-95
2021/10/22 07:54:59;;;;;;;18.73;12.10;;;14.90;98.50;;;;;;5094063;28;20039;-96
2021/10/22 07:57:25;;;;;;;16.92;11.85;;;15.00;98.50;;;;;;5093738;28;20020;-96
2021/10/22 07:59:51;;;;;;;22.65;12.25;;;15.10;98.60;;;;;;5093830;28;20020;-93
2021/10/22 08:02:17;;;;;;;18.30;12.45;;;15.10;97.20;;;;;;5093675;28;20360;-94
2021/10/22 08:04:48;;;;;;;15.55;11.00;;;15.20;97.40;;;;;;5093495;28;20028;-96
2021/10/22 08:07:17;;;;;;;17.23;11.77;;;15.20;97.70;;;;;;5093035;28;20036;-96
2021/10/22 08:09:44;;;;;;;20.52;12.38;;;15.30;97.70;;;;;;5093477;28;20474;-96
2021/10/22 08:12:14;;;;;;;19.17;12.18;;;15.30;97.70;;;;;;5093746;28;20083;-96
2021/10/22 08:14:45;;;;;;;19.40;12.10;;;15.30;97.10;;;;;;5093602;28;20054;-96
2021/10/22 08:17:21;;;;;;;17.35;13.10;;;15.40;97.20;;;;;;5093613;28;20020;-96
2021/10/22 08:19:53;;;;;;;17.25;11.52;;;15.40;97.10;;;;;;5093256;28;20044;-95
2021/10/22 08:22:28;;;;;;;17.08;11.65;;;15.40;96.90;;;;;;5093437;28;20024;-96
2021/10/22 08:24:59;;;;;;;17.40;11.45;;;15.60;97.20;;;;;;5093466;28;20088;-94
2021/10/22 08:27:27;;;;;;;15.68;11.40;;;15.60;96.70;;;;;;5093616;28;20496;-96
2021/10/22 08:29:53;;;;;;;21.25;12.43;;;15.80;96.90;;;;;;5093461;28;20024;-96
2021/10/22 08:32:19;;;;;;;25.33;11.32;;;15.90;95.90;;;;;;5093618;28;20020;-96
2021/10/22 08:34:45;;;;;;;19.40;11.43;;;16.00;95.10;;;;;;5094481;28;20035;-95
2021/10/22 08:37:11;;;;;;;15.93;10.18;;;16.20;94.80;;;;;;5093302;28;20028;-96
2021/10/22 08:39:42;;;;;;;21.17;11.45;;;16.30;95.00;;;;;;5093334;28;20024;-95
2021/10/22 08:42:10;;;;;;;18.42;11.48;;;16.40;94.30;;;;;;5093725;28;20031;-94
2021/10/22 08:44:38;;;;;;;20.27;10.77;;;16.50;94.30;;;;;;5094721;28;20032;-96
2021/10/22 08:47:05;;;;;;;16.35;10.15;;;16.50;93.80;;;;;;5094785;28;20063;-96
2021/10/22 08:49:32;;;;;;;18.33;10.02;;;16.50;92.80;;;;;;5095323;28;20055;-93
2021/10/22 08:51:59;;;;;;;16.63;9.73;;;16.40;92.60;;;;;;5092990;28;20492;-94
2021/10/22 08:54:26;;;;;;;19.38;9.93;;;16.30;92.50;;;;;;5093940;28;20059;-95
2021/10/22 08:56:52;;;;;;;20.45;10.02;;;16.40;92.30;;;;;;5093027;28;20043;-96
2021/10/22 08:59:18;;;;;;;15.15;8.65;;;16.50;92.00;;;;;;5096543;28;20471;-96
2021/10/22 09:02:10;;;;;;;16.58;8.65;;;16.40;91.70;;;;;;5097297;28;20389;-96
2021/10/22 09:04:36;;;;;;;18.20;9.55;;;16.30;92.00;;;;;;5100895;28;20436;-96
2021/10/22 09:07:02;;;;;;;22.17;10.10;;;16.30;92.00;;;;;;5097160;28;20056;-96
2021/10/22 09:09:27;;;;;;;14.02;8.98;;;16.30;91.60;;;;;;5097470;28;20115;-95
2021/10/22 09:11:53;;;;;;;18.10;10.52;;;16.30;91.80;;;;;;5097893;28;20118;-95
2021/10/22 09:14:25;;;;;;;52.28;29.20;;;16.40;92.20;;;;;;5097708;28;20059;-96
2021/10/22 09:16:53;;;;;;;18.63;10.05;;;16.50;91.40;;;;;;5097103;28;20094;-96
2021/10/22 09:19:44;;;;;;;18.13;9.52;;;16.50;91.20;;;;;;5098178;28;20146;-96
2021/10/22 09:22:24;;;;;;;13.75;9.00;;;16.60;91.50;;;;;;5096404;28;20031;-95
2021/10/22 09:24:51;;;;;;;;;;;16.70;90.80;;;;;;5097192;28;20493;-95
2021/10/22 09:27:38;;;;;;;16.27;10.15;;;16.70;90.20;;;;;;5102662;28;19904;-96
2021/10/22 09:30:31;;;;;;;14.05;8.82;;;16.80;90.00;;;;;;5098980;28;20067;-96
2021/10/22 09:33:02;;;;;;;16.38;9.50;;;16.80;90.10;;;;;;5103135;28;20024;-96
2021/10/22 09:35:46;;;;;;;12.95;8.20;;;16.80;90.30;;;;;;5117821;22;20042;-95
2021/10/22 09:38:32;;;;;;;12.30;8.38;;;16.80;90.60;;;;;;5043117;28;20033;-96
2021/10/22 09:41:02;;;;;;;11.55;8.02;;;16.80;90.40;;;;;;5039061;28;20041;-95
2021/10/22 09:43:38;;;;;;;12.20;8.30;;;16.70;90.00;;;;;;5036252;28;20029;-94
2021/10/22 09:46:21;;;;;;;12.23;7.80;;;16.60;90.30;;;;;;5035814;28;20079;-94
2021/10/22 09:48:56;;;;;;;16.02;8.32;;;16.50;90.10;;;;;;5035703;28;20018;-93
2021/10/22 09:51:22;;;;;;;14.75;8.88;;;16.40;89.90;;;;;;5035593;28;20074;-92
2021/10/22 09:53:48;;;;;;;15.40;8.82;;;16.40;88.80;;;;;;5052161;28;20112;-92
2021/10/22 09:56:20;;;;;;;14.52;7.13;;;16.50;88.70;;;;;;5035443;28;20095;-94
2021/10/22 09:59:00;;;;;;;11.27;6.63;;;16.60;88.70;;;;;;5036209;28;20029;-96
2021/10/22 10:01:34;;;;;;;9.47;6.67;;;16.60;88.50;;;;;;5035623;28;20029;-95
2021/10/22 10:04:01;;;;;;;13.35;8.55;;;16.80;88.00;;;;;;5036612;28;20022;-96
2021/10/22 10:06:28;;;;;;;14.00;8.02;;;16.90;86.20;;;;;;5035814;28;20049;-95
2021/10/22 10:08:54;;;;;;;12.02;7.63;;;17.00;85.30;;;;;;5036041;28;20033;-94
2021/10/22 10:11:21;;;;;;;11.55;6.88;;;17.20;83.60;;;;;;5037200;28;20506;-96
2021/10/22 10:13:51;;;;;;;14.27;6.72;;;17.20;83.80;;;;;;5035924;28;20030;-96
2021/10/22 10:16:18;;;;;;;9.88;6.30;;;17.30;82.80;;;;;;5036784;28;20018;-96
2021/10/22 10:18:50;;;;;;;13.20;6.85;;;17.40;82.40;;;;;;5037185;28;20029;-94
2021/10/22 10:21:18;;;;;;;14.23;7.63;;;17.40;82.10;;;;;;5035126;28;20017;-95
2021/10/22 10:23:46;;;;;;;13.32;7.00;;;17.50;82.50;;;;;;5036386;28;20105;-93
2021/10/22 10:26:21;;;;;;;11.40;6.82;;;17.60;82.40;;;;;;5037606;28;20045;-90
2021/10/22 10:28:50;;;;;;;11.68;6.30;;;17.70;81.10;;;;;;5033873;28;20026;-89
2021/10/22 10:31:33;;;;;;;11.98;5.32;;;17.80;79.70;;;;;;5035090;28;20033;-94
2021/10/22 10:34:00;;;;;;;8.77;4.97;;;17.80;78.30;;;;;;5034790;28;20028;-93
2021/10/22 10:36:47;;;;;;;8.35;5.07;;;17.70;78.00;;;;;;5030184;28;20083;-90
2021/10/22 10:39:14;;;;;;;9.80;5.13;;;17.80;77.80;;;;;;5038060;28;20426;-92
2021/10/22 10:41:40;;;;;;;7.88;5.40;;;17.70;77.30;;;;;;5037952;28;20033;-87
2021/10/22 10:44:24;;;;;;;7.75;5.20;;;17.80;78.10;;;;;;5037437;28;20021;-90
2021/10/22 10:46:50;;;;;;;39.65;6.07;;;17.90;77.80;;;;;;5040642;28;20044;-87
2021/10/22 10:49:46;;;;;;;12.55;5.45;;;17.90;75.10;;;;;;5037683;28;20116;-90
2021/10/22 10:52:39;;;;;;;12.98;5.38;;;18.00;75.90;;;;;;5037908;28;20049;-92
2021/10/22 10:55:30;;;;;;;9.85;4.75;;;18.10;74.60;;;;;;5033327;28;20033;-90
2021/10/22 10:58:00;;;;;;;7.75;4.97;;;18.00;72.90;;;;;;5037608;28;20025;-90
2021/10/22 11:00:31;;;;;;;11.02;5.10;;;18.00;72.40;;;;;;5037216;28;20079;-88
2021/10/22 11:03:11;;;;;;;9.35;4.78;;;18.00;72.00;;;;;;5036484;28;20479;-89
2021/10/22 11:05:43;;;;;;;12.52;5.18;;;17.90;71.00;;;;;;5035310;28;20021;-92
2021/10/22 11:08:13;;;;;;;8.43;4.05;;;17.90;70.20;;;;;;5036610;28;20018;-90
2021/10/22 11:11:11;;;;;;;7.63;4.30;;;18.00;70.00;;;;;;5037622;28;20383;-90
2021/10/22 11:13:54;;;;;;;8.10;4.45;;;18.10;69.60;;;;;;5038436;28;20072;-91
2021/10/22 11:16:27;;;;;;;8.38;4.65;;;18.10;70.10;;;;;;5038907;28;20472;-90
2021/10/22 11:19:09;;;;;;;11.18;4.43;;;18.10;69.30;;;;;;5039207;28;20037;-95
2021/10/22 11:21:38;;;;;;;11.25;5.85;;;18.20;69.30;;;;;;5056971;28;20029;-94
2021/10/22 11:24:21;;;;;;;11.65;5.28;;;18.10;68.60;;;;;;5041493;28;20025;-96
2021/10/22 11:27:09;;;;;;;5.85;4.45;;;18.10;69.80;;;;;;5023314;28;20048;-96
2021/10/22 11:29:49;;;;;;;11.48;5.40;;;18.10;68.00;;;;;;5057352;28;20021;-92
2021/10/22 11:32:26;;;;;;;10.35;5.93;;;18.10;68.20;;;;;;5045182;28;20403;-95
2021/10/22 11:34:52;;;;;;;13.20;7.43;;;18.10;69.10;;;;;;5039812;28;20028;-88
2021/10/22 11:37:20;;;;;;;13.73;7.82;;;18.10;68.10;;;;;;5040091;28;20032;-92
2021/10/22 11:39:54;;;;;;;14.05;6.40;;;18.00;68.50;;;;;;5038483;28;20017;-92
2021/10/22 11:42:19;;;;;;;11.02;5.57;;;17.90;67.60;;;;;;5037526;28;20060;-92
2021/10/22 11:44:59;;;;;;;6.82;5.22;;;18.00;67.50;;;;;;5039388;28;20025;-96
2021/10/22 11:47:39;;;;;;;7.87;5.43;;;18.10;67.40;;;;;;5037686;28;20040;-92
2021/10/22 11:50:24;;;;;;;8.45;6.22;;;18.10;67.10;;;;;;5039856;28;20051;-96
2021/10/22 11:53:14;;;;;;;8.35;6.13;;;18.10;67.80;;;;;;5038209;28;20051;-90
2021/10/22 11:55:41;;;;;;;10.13;5.65;;;18.10;67.70;;;;;;5037735;28;20029;-93
2021/10/22 11:58:09;;;;;;;13.60;6.10;;;18.00;68.50;;;;;;5037721;28;20029;-95
2021/10/22 12:00:37;;;;;;;10.05;5.88;;;17.90;68.20;;;;;;5040686;28;20025;-94
2021/10/22 12:03:03;;;;;;;17.70;5.85;;;17.90;68.80;;;;;;5041721;28;20033;-96
2021/10/22 12:05:30;;;;;;;13.07;7.38;;;17.80;69.00;;;;;;5046520;28;20079;-96
2021/10/22 12:07:58;;;;;;;10.25;5.40;;;17.70;69.50;;;;;;5039847;28;20028;-94
2021/10/22 12:10:37;;;;;;;11.25;5.57;;;17.70;69.00;;;;;;5042235;28;20017;-96
2021/10/22 12:13:09;;;;;;;8.70;5.90;;;17.60;70.00;;;;;;5044752;28;20036;-96
2021/10/22 12:15:35;;;;;;;9.20;5.82;;;17.60;70.20;;;;;;5196755;22;20039;-96
2021/10/22 12:18:04;;;;;;;12.75;6.30;;;17.50;70.50;;;;;;5064568;28;20043;-96
2021/10/22 12:20:33;;;;;;;10.80;6.28;;;17.50;70.50;;;;;;5063318;28;20025;-96
2021/10/22 12:23:01;;;;;;;12.27;6.27;;;17.50;70.40;;;;;;5066047;28;20021;-96
2021/10/22 12:25:44;;;;;;;12.70;7.20;;;17.60;70.60;;;;;;5078368;28;20155;-96
2021/10/22 12:28:16;;;;;;;9.15;6.72;;;17.60;70.30;;;;;;5060141;28;20124;-96
2021/10/22 12:30:43;;;;;;;13.18;6.22;;;17.70;69.50;;;;;;5059960;28;20483;-95
2021/10/22 12:33:11;;;;;;;14.30;7.40;;;17.70;68.80;;;;;;5059422;28;20043;-94
2021/10/22 12:35:51;;;;;;;11.23;5.70;;;17.80;66.40;;;;;;5068483;28;20021;-94
2021/10/22 12:38:32;;;;;;;7.82;6.18;;;17.70;66.30;;;;;;5158614;22;20051;-96
2021/10/22 12:40:59;;;;;;;13.27;6.50;;;17.70;65.30;;;;;;5102379;28;20019;-91
2021/10/22 12:43:29;;;;;;;12.32;8.73;;;17.70;64.90;;;;;;5102083;28;20517;-94
2021/10/22 12:46:05;;;;;;;13.73;9.77;;;17.70;64.60;;;;;;5101259;28;20209;-90
2021/10/22 12:48:34;;;;;;;22.48;14.45;;;17.80;64.20;;;;;;5101640;28;20043;-94
2021/10/22 12:51:14;;;;;;;19.50;11.23;;;17.80;64.40;;;;;;5101001;28;20042;-96
2021/10/22 12:53:45;;;;;;;28.83;13.85;;;17.90;63.90;;;;;;5102648;28;20055;-95
2021/10/22 12:56:27;;;;;;;36.13;22.52;;;17.80;64.60;;;;;;5103619;28;20028;-93
2021/10/22 12:59:08;;;;;;;16.42;9.55;;;17.80;65.20;;;;;;5102200;28;20030;-91
2021/10/22 13:01:39;;;;;;;12.05;9.50;;;17.80;64.60;;;;;;5104683;28;20168;-96
2021/10/22 13:04:17;;;;;;;14.77;9.70;;;17.70;64.50;;;;;;5103523;28;20012;-96
2021/10/22 13:07:02;;;;;;;14.18;9.65;;;17.80;65.10;;;;;;5102014;28;20053;-94
2021/10/22 13:20:36;;;;;;;19.30;12.23;;;17.50;65.80;;;;;;5123094;28;20081;-93
2021/10/22 13:23:10;;;;;;;15.40;11.02;;;17.40;66.80;;;;;;5123559;28;20412;-96
2021/10/22 13:25:39;;;;;;;17.38;10.77;;;17.40;67.00;;;;;;5104937;28;20055;-96
2021/10/22 13:28:10;;;;;;;17.20;10.65;;;17.30;67.00;;;;;;5101043;28;20023;-96
2021/10/22 13:30:40;;;;;;;;;;;17.20;67.20;;;;;;5101187;28;20081;-94
2021/10/22 13:33:14;;;;;;;21.02;10.90;;;17.10;67.80;;;;;;5102466;28;19949;-96
2021/10/22 13:35:43;;;;;;;17.38;10.70;;;17.10;67.50;;;;;;5101416;28;20034;-93
2021/10/22 13:38:10;;;;;;;15.80;9.13;;;17.10;68.10;;;;;;5100294;28;20551;-93
2021/10/22 13:40:39;;;;;;;15.48;9.10;;;17.00;67.50;;;;;;5104183;28;20046;-95
2021/10/22 13:43:06;;;;;;;18.88;10.48;;;17.00;68.20;;;;;;5121028;28;20035;-96
2021/10/22 13:45:35;;;;;;;16.27;9.27;;;17.00;68.40;;;;;;5102882;28;20390;-96
2021/10/22 13:48:04;;;;;;;14.38;8.55;;;16.90;68.70;;;;;;5100189;28;20011;-95
2021/10/22 13:50:30;;;;;;;14.90;7.70;;;16.80;68.70;;;;;;5101777;28;20048;-96
2021/10/22 13:52:56;;;;;;;14.68;7.72;;;16.80;68.60;;;;;;5100553;28;20055;-95
2021/10/22 13:55:22;;;;;;;14.27;8.13;;;16.80;68.90;;;;;;5100641;28;20026;-95
2021/10/22 13:57:51;;;;;;;12.68;7.32;;;16.70;69.10;;;;;;5099651;28;20037;-95
2021/10/22 14:00:17;;;;;;;14.88;8.30;;;16.70;69.20;;;;;;5100120;28;20058;-93
2021/10/22 14:02:43;;;;;;;30.25;16.13;;;16.60;69.60;;;;;;5099409;28;20019;-93
2021/10/22 14:05:10;;;;;;;17.42;10.93;;;16.50;69.70;;;;;;5098873;28;20023;-95
2021/10/22 14:07:35;;;;;;;27.65;13.25;;;16.50;69.70;;;;;;5098685;28;20024;-93
2021/10/22 14:10:02;;;;;;;23.73;13.27;;;16.50;69.60;;;;;;5099438;28;20026;-96
2021/10/22 14:12:34;;;;;;;18.60;11.52;;;16.50;69.00;;;;;;5098837;28;20611;-96
2021/10/22 14:15:28;;;;;;;20.33;12.55;;;16.40;69.60;;;;;;5099559;28;20034;-93
2021/10/22 14:18:10;;;;;;;29.15;16.48;;;16.30;69.50;;;;;;5116661;28;20381;-93
2021/10/22 14:31:06;;;;;;;23.70;13.10;;;16.10;69.10;;;;;;5117084;28;20038;-92
2021/10/22 14:33:32;;;;;;;26.83;12.88;;;16.10;69.20;;;;;;5098442;28;20024;-93
2021/10/22 14:35:58;;;;;;;31.20;13.88;;;15.90;69.70;;;;;;5098780;28;20024;-92
2021/10/22 14:38:24;;;;;;;24.45;11.20;;;15.90;69.80;;;;;;5098132;28;20506;-93
2021/10/22 14:40:54;;;;;;;19.30;9.50;;;15.80;70.10;;;;;;5098165;28;20032;-93
2021/10/22 14:43:27;;;;;;;;;;;15.60;70.60;;;;;;5098626;28;20031;-92
2021/10/22 14:46:12;;;;;;;14.77;8.88;;;15.50;70.80;;;;;;5098522;28;19918;-93
2021/10/22 14:48:42;;;;;;;14.30;8.82;;;15.40;71.10;;;;;;5098051;28;20028;-92
2021/10/22 14:51:14;;;;;;;22.15;11.80;;;15.20;71.40;;;;;;5098074;28;20024;-92
2021/10/22 14:53:47;;;;;;;24.75;15.45;;;15.10;71.80;;;;;;5098162;28;20032;-93
2021/10/22 14:56:13;;;;;;;30.38;17.63;;;15.10;72.10;;;;;;5097071;28;20020;-93
2021/10/22 14:58:38;;;;;;;26.92;16.20;;;14.90;72.40;;;;;;5097960;28;20073;-92
2021/10/22 15:01:04;;;;;;;27.05;16.67;;;14.80;72.50;;;;;;5097782;28;20498;-93
2021/10/22 15:03:30;;;;;;;28.35;14.43;;;14.80;72.70;;;;;;5097603;28;20024;-92
2021/10/22 15:05:56;;;;;;;31.85;16.13;;;14.70;72.60;;;;;;5099058;28;20024;-93
2021/10/22 15:08:21;;;;;;;23.08;13.57;;;14.70;73.10;;;;;;5098183;28;20019;-93
2021/10/22 15:10:50;;;;;;;24.75;14.32;;;14.60;73.20;;;;;;5097701;28;20023;-93
2021/10/22 15:13:15;;;;;;;26.98;13.43;;;14.50;73.20;;;;;;5097617;28;20390;-93
2021/10/22 15:15:41;;;;;;;23.05;12.95;;;14.40;73.50;;;;;;5097469;28;20023;-94
2021/10/22 15:18:07;;;;;;;21.23;11.75;;;14.30;73.80;;;;;;5097721;28;20034;-94
2021/10/22 15:20:34;;;;;;;34.40;19.75;;;14.20;74.30;;;;;;5097435;28;20030;-93
2021/10/22 15:23:00;;;;;;;119.40;67.60;;;14.10;74.70;;;;;;5097536;28;20023;-94
2021/10/22 15:25:26;;;;;;;86.35;51.95;;;13.90;75.50;;;;;;5097357;28;20020;-93
2021/10/22 15:27:51;;;;;;;76.50;45.97;;;13.80;76.20;;;;;;5097623;28;20027;-94
2021/10/22 15:30:17;;;;;;;101.47;64.43;;;13.60;77.20;;;;;;5097828;28;20034;-94
2021/10/22 15:32:43;;;;;;;104.10;63.80;;;13.40;77.90;;;;;;5097620;28;20404;-93
2021/10/22 15:35:10;;;;;;;55.03;35.25;;;13.30;78.50;;;;;;5097798;28;20031;-91
2021/10/22 15:37:36;;;;;;;41.55;24.52;;;13.10;78.70;;;;;;5097136;28;20371;-92
2021/10/22 15:40:04;;;;;;;37.28;22.00;;;12.90;79.30;;;;;;5098202;28;20027;-95
2021/10/22 15:42:29;;;;;;;33.28;19.27;;;12.80;79.90;;;;;;5097532;28;20068;-96
2021/10/22 15:44:55;;;;;;;37.45;18.83;;;12.60;80.40;;;;;;5099850;28;20028;-96
2021/10/22 15:47:21;;;;;;;31.80;17.30;;;12.50;80.70;;;;;;5099651;28;20023;-96
2021/10/22 15:49:52;;;;;;;31.83;16.42;;;12.30;81.10;;;;;;5100753;28;20020;-96
2021/10/22 15:52:18;;;;;;;33.72;16.95;;;12.20;81.50;;;;;;5102283;28;20027;-96
2021/10/22 15:54:50;;;;;;;33.80;16.42;;;12.20;82.20;;;;;;5102193;28;20034;-94
2021/10/22 15:57:21;;;;;;;38.60;18.23;;;12.00;82.80;;;;;;5116960;28;20050;-93
2021/10/22 15:59:51;;;;;;;;;;;11.90;83.80;;;;;;5100210;28;20096;-95
2021/10/22 16:02:18;;;;;;;70.97;41.08;;;11.80;85.10;;;;;;5099810;28;19908;-96
2021/10/22 16:04:44;;;;;;;123.32;67.85;;;11.70;83.90;;;;;;5103454;28;20031;-95
2021/10/22 16:09:40;;;;;;;136.07;76.43;;;11.50;84.90;;;;;;5120968;28;20481;-96
2021/10/22 16:12:16;;;;;;;136.07;76.30;;;11.50;85.40;;;;;;5105994;28;20435;-95
2021/10/22 16:17:30;;;;;;;93.55;46.38;;;11.30;86.10;;;;;;5108292;28;20123;-94
2021/10/22 16:20:01;;;;;;;105.10;49.30;;;11.30;86.80;;;;;;5069582;28;20527;-92
2021/10/22 16:22:27;;;;;;;104.45;49.88;;;11.20;87.10;;;;;;5096509;28;20031;-91
2021/10/22 16:24:53;;;;;;;105.50;51.58;;;11.20;87.60;;;;;;5096595;28;20026;-91
2021/10/22 16:27:19;;;;;;;115.85;52.80;;;11.20;88.00;;;;;;5096483;28;20027;-90
2021/10/22 16:29:46;;;;;;;106.20;52.90;;;11.20;88.50;;;;;;5096750;28;20072;-90
2021/10/22 16:32:14;;;;;;;164.55;85.82;;;11.20;89.60;;;;;;5096569;28;20028;-90
2021/10/22 16:37:27;;;;;;;156.45;83.82;;;11.20;89.80;;;;;;5114693;28;20102;-90
2021/10/22 16:39:53;;;;;;;111.93;54.30;;;11.30;90.00;;;;;;5096391;28;20024;-91
2021/10/22 16:42:21;;;;;;;101.32;54.55;;;11.30;90.00;;;;;;5114349;28;20028;-90
2021/10/22 16:44:47;;;;;;;94.18;48.83;;;11.40;90.10;;;;;;5096282;28;20165;-91
2021/10/22 16:47:13;;;;;;;80.35;41.88;;;11.40;90.20;;;;;;5114247;28;20020;-89
2021/10/22 16:49:38;;;;;;;83.57;41.53;;;11.50;90.30;;;;;;5096079;28;20068;-89
2021/10/22 16:52:05;;;;;;;74.97;40.58;;;11.50;90.40;;;;;;5096279;28;20032;-89
2021/10/22 16:54:30;;;;;;;74.07;39.20;;;11.50;90.50;;;;;;5096168;28;20052;-92
2021/10/22 16:56:56;;;;;;;74.97;39.40;;;11.50;90.50;;;;;;5096100;28;20049;-89
2021/10/22 16:59:24;;;;;;;79.10;38.92;;;11.40;90.60;;;;;;5095997;28;20028;-89
2021/10/22 17:01:49;;;;;;;80.85;39.03;;;11.40;90.70;;;;;;5096038;28;20073;-90
2021/10/22 17:04:15;;;;;;;70.88;38.22;;;11.40;90.80;;;;;;5096013;28;20024;-90
2021/10/22 17:06:42;;;;;;;73.32;37.55;;;11.20;90.90;;;;;;5096111;28;20019;-89
2021/10/22 17:09:07;;;;;;;73.07;38.08;;;11.20;91.00;;;;;;5096006;28;20015;-90
2021/10/22 17:11:35;;;;;;;79.63;40.17;;;11.10;91.10;;;;;;5095897;28;20112;-90
2021/10/22 17:14:01;;;;;;;79.20;41.65;;;11.10;91.20;;;;;;5095705;28;20023;-90
2021/10/22 17:16:29;;;;;;;81.40;42.13;;;11.00;91.30;;;;;;5095886;28;20024;-90
2021/10/22 17:18:57;;;;;;;76.43;41.35;;;10.90;91.40;;;;;;5096098;28;20480;-90
2021/10/22 17:21:23;;;;;;;76.43;40.60;;;10.90;91.60;;;;;;5099868;28;20023;-90
2021/10/22 17:23:49;;;;;;;79.20;40.50;;;10.80;91.80;;;;;;5099846;28;20023;-90
2021/10/22 17:26:15;;;;;;;76.38;42.03;;;10.70;91.90;;;;;;5092281;28;20046;-90
2021/10/22 17:28:43;;;;;;;83.15;42.90;;;10.70;92.00;;;;;;5080624;28;20086;-90
2021/10/22 17:31:10;;;;;;;78.22;39.97;;;10.60;92.30;;;;;;5079412;28;20020;-92
2021/10/22 17:33:35;;;;;;;79.68;39.65;;;10.60;92.40;;;;;;5079232;28;20031;-92